Terminal Aerodrome Forecast
Issued by NWS Wilmington, OH

Current Version | Previous Version | Graphics & Text | Print | Product List | Glossary On
Versions: 1 2 3 4 5 6 7 8 9 10 11 12 13 14 15 16 17 18 19 20 21 22 23 24 25 26 27 28 29 30 31 32 33 34 35 36 37
000
FTUS41 KILN 201700 AAA
TAFCMH
TAF AMD
KCMH 201750Z 2018/2118 13005KT P6SM SCT025 BKN035
     FM210600 VRB02KT 3SM BR BKN020
     FM211300 08005KT P6SM SCT020=

USA.gov is the U.S. government's official web portal to all federal, state and local government web resources and services.